createdAt,value
2023-01-11T00:02:18.085Z,7.30
2023-01-11T00:04:47.548Z,7.20
2023-01-11T00:07:15.506Z,7.40
2023-01-11T00:09:43.354Z,7.30
2023-01-11T00:12:14.167Z,7.40
2023-01-11T00:14:42.194Z,7.40
2023-01-11T00:17:10.201Z,7.40
2023-01-11T00:19:38.044Z,7.40
2023-01-11T00:22:07.265Z,7.40
2023-01-11T00:24:35.107Z,7.40
2023-01-11T00:27:02.920Z,7.50
2023-01-11T00:29:30.810Z,7.40
2023-01-11T00:31:58.739Z,7.50
2023-01-11T00:34:26.719Z,7.50
2023-01-11T00:36:54.608Z,7.50
2023-01-11T00:39:23.913Z,7.50
2023-01-11T00:42:09.124Z,7.50
2023-01-11T00:44:54.591Z,7.40
2023-01-11T00:47:40.231Z,7.40
2023-01-11T00:50:08.868Z,7.40
2023-01-11T00:52:36.716Z,7.30
2023-01-11T00:55:06.982Z,7.30
2023-01-11T00:57:34.885Z,7.30
2023-01-11T01:00:03.849Z,7.30
2023-01-11T01:02:33.939Z,7.30
2023-01-11T01:05:02.094Z,7.40
2023-01-11T01:07:30.073Z,7.40
2023-01-11T01:09:57.973Z,7.40
2023-01-11T01:12:46.841Z,7.30
2023-01-11T01:15:14.806Z,7.40
2023-01-11T01:17:42.700Z,7.30
2023-01-11T01:20:11.612Z,7.30
2023-01-11T01:22:39.599Z,7.40
2023-01-11T01:25:07.924Z,7.40
2023-01-11T01:27:37.291Z,7.40
2023-01-11T01:30:06.544Z,7.40
2023-01-11T01:32:34.378Z,7.40
2023-01-11T01:35:02.236Z,7.40
2023-01-11T01:37:30.241Z,7.50
2023-01-11T01:39:58.122Z,7.40
2023-01-11T01:42:26.356Z,7.50
2023-01-11T01:44:58.886Z,7.50
2023-01-11T01:47:32.156Z,7.50
2023-01-11T01:50:05.711Z,7.50
2023-01-11T01:52:35.301Z,7.50
2023-01-11T01:55:07.998Z,7.50
2023-01-11T01:57:40.691Z,7.60
2023-01-11T02:00:11.433Z,7.60
2023-01-11T02:02:41.002Z,7.60
2023-01-11T02:05:10.578Z,7.60
2023-01-11T02:07:42.108Z,7.60
2023-01-11T02:10:11.847Z,7.60
2023-01-11T02:12:44.387Z,7.60
2023-01-11T02:15:14.198Z,7.60
2023-01-11T02:17:42.081Z,7.60
2023-01-11T02:20:30.955Z,7.70
2023-01-11T02:23:25.925Z,7.70
2023-01-11T02:26:23.525Z,7.70
2023-01-11T02:28:57.008Z,7.70
2023-01-11T02:31:31.656Z,7.70
2023-01-11T02:34:11.378Z,7.70
2023-01-11T02:36:51.739Z,7.70
2023-01-11T02:39:27.117Z,7.70
2023-01-11T02:42:22.300Z,7.70
2023-01-11T02:45:04.272Z,7.80
2023-01-11T02:47:39.979Z,7.70
2023-01-11T02:50:19.590Z,7.70
2023-01-11T02:52:53.893Z,7.70
2023-01-11T02:55:25.840Z,7.70
2023-01-11T02:57:57.628Z,7.70
2023-01-11T03:00:27.221Z,7.80
2023-01-11T03:03:14.799Z,7.80
2023-01-11T03:05:48.761Z,7.80
2023-01-11T03:08:34.193Z,7.80
2023-01-11T03:11:07.363Z,7.90
2023-01-11T03:13:45.565Z,7.90
2023-01-11T03:16:26.880Z,7.90
2023-01-11T03:19:05.857Z,7.90
2023-01-11T03:21:47.958Z,7.90
2023-01-11T03:24:27.129Z,8.00
2023-01-11T03:27:07.201Z,8.00
2023-01-11T03:29:40.067Z,8.00
2023-01-11T03:32:23.178Z,8.00
2023-01-11T03:35:02.465Z,8.00
2023-01-11T03:37:35.661Z,8.00
2023-01-11T03:40:09.440Z,8.00
2023-01-11T03:43:01.398Z,8.00
2023-01-11T03:45:33.602Z,8.00
2023-01-11T03:48:06.279Z,8.00
2023-01-11T03:50:35.058Z,8.00
2023-01-11T03:53:06.683Z,8.00
2023-01-11T03:55:39.705Z,8.00
2023-01-11T03:58:09.128Z,8.10
2023-01-11T04:00:38.449Z,8.10
2023-01-11T04:03:09.601Z,8.10
2023-01-11T04:05:39.662Z,8.10
2023-01-11T04:08:07.600Z,8.20
2023-01-11T04:10:35.471Z,8.20
2023-01-11T04:13:03.369Z,8.20
2023-01-11T04:15:32.668Z,8.20
2023-01-11T04:18:04.776Z,8.30
2023-01-11T04:20:35.672Z,8.30
2023-01-11T04:23:03.934Z,8.30
2023-01-11T04:25:32.171Z,8.20
2023-01-11T04:28:00.429Z,8.30
2023-01-11T04:30:29.105Z,8.30
2023-01-11T04:32:59.242Z,8.30
2023-01-11T04:35:27.356Z,8.30
2023-01-11T04:37:57.020Z,8.30
2023-01-11T04:40:25.388Z,8.30
2023-01-11T04:42:52.304Z,8.30
2023-01-11T04:45:20.936Z,8.30
2023-01-11T04:47:54.863Z,8.40
2023-01-11T04:50:22.775Z,8.40
2023-01-11T04:52:50.748Z,8.40
2023-01-11T04:55:21.012Z,8.50
2023-01-11T04:57:48.958Z,8.40
2023-01-11T05:00:18.001Z,8.50
2023-01-11T05:02:45.954Z,8.50
2023-01-11T05:05:13.907Z,8.40
2023-01-11T05:07:41.854Z,8.40
2023-01-11T05:10:11.489Z,8.40
2023-01-11T05:12:40.728Z,8.40
2023-01-11T05:15:10.203Z,8.40
2023-01-11T05:17:38.125Z,8.40
2023-01-11T05:20:08.240Z,8.40
2023-01-11T05:22:36.131Z,8.40
2023-01-11T05:25:04.141Z,8.40
2023-01-11T05:27:32.029Z,8.40
2023-01-11T05:30:01.280Z,8.40
2023-01-11T05:32:29.278Z,8.40
2023-01-11T05:34:57.134Z,8.40
2023-01-11T05:37:24.975Z,8.40
2023-01-11T05:39:52.862Z,8.40
2023-01-11T05:42:21.987Z,8.40
2023-01-11T05:45:07.812Z,8.40
2023-01-11T05:47:37.039Z,8.40
2023-01-11T05:50:05.506Z,8.40
2023-01-11T05:52:33.473Z,8.40
2023-01-11T05:55:01.422Z,8.40
2023-01-11T05:57:29.284Z,8.40
2023-01-11T05:59:57.096Z,8.40
2023-01-11T06:02:25.023Z,8.40
2023-01-11T06:04:55.507Z,8.40
2023-01-11T06:07:25.268Z,8.50
2023-01-11T06:09:53.390Z,8.40
2023-01-11T06:12:21.297Z,8.50
2023-01-11T06:14:49.388Z,8.50
2023-01-11T06:17:17.344Z,8.60
2023-01-11T06:19:45.289Z,8.50
2023-01-11T06:22:14.680Z,8.60
2023-01-11T06:24:42.573Z,8.70
2023-01-11T06:27:11.390Z,8.60
2023-01-11T06:29:39.210Z,8.60
2023-01-11T06:32:08.849Z,8.70
2023-01-11T06:34:36.866Z,8.70
2023-01-11T06:37:04.825Z,8.70
2023-01-11T06:39:34.131Z,8.80
2023-01-11T06:42:02.086Z,8.80
2023-01-11T06:44:30.020Z,8.80
2023-01-11T06:46:58.788Z,8.90
2023-01-11T06:49:26.715Z,9.00
2023-01-11T06:51:54.579Z,9.00
2023-01-11T06:54:25.553Z,9.10
2023-01-11T06:56:54.872Z,9.10
2023-01-11T06:59:22.768Z,9.10
2023-01-11T07:01:50.920Z,9.10
2023-01-11T07:04:19.850Z,9.10
2023-01-11T07:06:47.723Z,9.20
2023-01-11T07:09:15.640Z,9.20
2023-01-11T07:11:43.494Z,9.20
2023-01-11T07:14:20.010Z,9.20
2023-01-11T07:16:48.019Z,9.10
2023-01-11T07:19:18.057Z,9.20
2023-01-11T07:21:46.000Z,9.20
2023-01-11T07:24:13.911Z,9.30
2023-01-11T07:26:42.147Z,9.30
2023-01-11T07:29:10.391Z,9.30
2023-01-11T07:31:39.614Z,9.30
2023-01-11T07:34:07.486Z,9.30
2023-01-11T07:36:39.380Z,9.30
2023-01-11T07:39:07.452Z,9.30
2023-01-11T07:41:52.586Z,9.30
2023-01-11T07:44:20.519Z,9.30
2023-01-11T07:46:49.901Z,9.30
2023-01-11T07:49:17.917Z,9.30
2023-01-11T07:51:45.823Z,9.30
2023-01-11T07:54:13.764Z,9.30
2023-01-11T07:56:41.700Z,9.30
2023-01-11T07:59:10.155Z,9.30
2023-01-11T08:01:38.219Z,9.30
2023-01-11T08:04:11.900Z,9.30
2023-01-11T08:06:40.056Z,9.30
2023-01-11T08:09:08.260Z,9.30
2023-01-11T08:11:53.972Z,9.30
2023-01-11T08:14:40.168Z,9.20
2023-01-11T08:17:08.789Z,9.20
2023-01-11T08:19:38.258Z,9.30
2023-01-11T08:22:06.790Z,9.20
2023-01-11T08:24:35.615Z,9.20
2023-01-11T08:27:04.397Z,9.20
2023-01-11T08:29:32.684Z,9.20
2023-01-11T08:32:00.684Z,9.20
2023-01-11T08:34:29.232Z,9.20
2023-01-11T08:36:58.579Z,9.20
2023-01-11T08:39:29.494Z,9.20
2023-01-11T08:41:57.493Z,9.20
2023-01-11T08:44:33.660Z,9.20
2023-01-11T08:47:02.405Z,9.20
2023-01-11T08:49:31.221Z,9.20
2023-01-11T08:52:00.651Z,9.30
2023-01-11T08:54:28.578Z,9.30
2023-01-11T08:56:56.759Z,9.30
2023-01-11T08:59:24.658Z,9.30
2023-01-11T09:01:52.858Z,9.40
2023-01-11T09:04:25.044Z,9.40
2023-01-11T09:06:53.916Z,9.40
2023-01-11T09:09:23.195Z,9.40
2023-01-11T09:11:58.758Z,9.40
2023-01-11T09:14:28.150Z,9.50
2023-01-11T09:16:57.034Z,9.50
2023-01-11T09:19:25.007Z,9.60
2023-01-11T09:21:53.558Z,9.60
2023-01-11T09:24:22.841Z,9.60
2023-01-11T09:26:50.773Z,9.60
2023-01-11T09:29:19.053Z,9.70
2023-01-11T09:31:47.347Z,9.70
2023-01-11T09:34:15.394Z,9.70
2023-01-11T09:36:44.660Z,9.80
2023-01-11T09:39:15.663Z,9.90
2023-01-11T09:42:12.943Z,9.90
2023-01-11T09:44:50.978Z,9.90
2023-01-11T09:47:30.533Z,9.90
2023-01-11T09:50:03.322Z,9.90
2023-01-11T09:52:38.113Z,9.90
2023-01-11T09:55:07.789Z,9.90
2023-01-11T09:57:51.587Z,9.90
2023-01-11T10:00:27.584Z,9.90
2023-01-11T10:03:32.990Z,9.90
2023-01-11T10:06:11.387Z,10.00
2023-01-11T10:18:23.130Z,10.00
2023-01-11T10:18:41.724Z,10.00
2023-01-11T10:20:52.020Z,10.20
2023-01-11T10:23:28.142Z,10.10
2023-01-11T10:26:00.412Z,10.10
2023-01-11T10:28:35.253Z,10.20
2023-01-11T10:31:28.659Z,10.20
2023-01-11T10:34:18.438Z,10.20
2023-01-11T10:37:10.796Z,10.20
2023-01-11T10:39:59.155Z,10.20
2023-01-11T10:42:30.727Z,10.20
2023-01-11T10:45:02.900Z,10.20
2023-01-11T10:47:37.101Z,10.20
2023-01-11T10:50:15.725Z,10.30
2023-01-11T10:52:51.876Z,10.30
2023-01-11T10:55:26.768Z,10.20
2023-01-11T10:58:06.924Z,10.20
2023-01-11T11:00:43.736Z,10.20
2023-01-11T11:03:49.870Z,10.20
2023-01-11T11:06:25.172Z,10.40
2023-01-11T11:08:59.128Z,10.40
2023-01-11T11:11:33.880Z,10.40
2023-01-11T11:14:09.772Z,10.50
2023-01-11T11:16:48.870Z,10.60
2023-01-11T11:19:22.800Z,10.60
2023-01-11T11:21:52.189Z,10.70
2023-01-11T11:24:27.517Z,10.70
2023-01-11T11:27:02.459Z,10.70
2023-01-11T11:29:30.820Z,10.80
2023-01-11T11:32:01.057Z,10.90
2023-01-11T11:34:30.991Z,10.90
2023-01-11T11:37:01.577Z,11.00
2023-01-11T11:39:31.246Z,11.00
2023-01-11T11:42:06.688Z,11.10
2023-01-11T11:44:35.204Z,11.10
2023-01-11T11:47:05.460Z,11.20
2023-01-11T11:49:35.867Z,11.20
2023-01-11T11:52:06.480Z,11.20
2023-01-11T11:54:38.939Z,11.20
2023-01-11T11:57:15.927Z,11.20
2023-01-11T11:59:47.294Z,11.20
2023-01-11T12:02:23.800Z,11.30
2023-01-11T12:04:54.398Z,11.30
2023-01-11T12:07:24.785Z,11.30
2023-01-11T12:10:06.582Z,11.30
2023-01-11T12:12:49.539Z,11.30
2023-01-11T12:15:21.206Z,11.30
2023-01-11T12:17:50.011Z,11.40
2023-01-11T12:20:40.928Z,11.40
2023-01-11T12:23:21.556Z,11.40
2023-01-11T12:26:17.212Z,11.50
2023-01-11T12:29:29.381Z,11.40
2023-01-11T12:32:09.248Z,11.40
2023-01-11T12:34:55.925Z,11.50
2023-01-11T12:37:41.040Z,11.50
2023-01-11T12:40:19.277Z,11.50
2023-01-11T12:43:03.866Z,11.60
2023-01-11T12:45:41.037Z,11.60
2023-01-11T12:48:31.102Z,11.60
2023-01-11T12:51:14.528Z,11.70
2023-01-11T12:53:59.883Z,11.70
2023-01-11T12:56:47.452Z,11.70
2023-01-11T12:59:30.507Z,11.70
2023-01-11T13:02:15.028Z,11.80
2023-01-11T13:04:56.001Z,11.80
2023-01-11T13:07:37.392Z,11.80
2023-01-11T13:10:24.931Z,11.80
2023-01-11T13:12:59.348Z,11.80
2023-01-11T13:15:35.480Z,11.90
2023-01-11T13:18:13.317Z,11.90
2023-01-11T13:21:00.740Z,11.90
2023-01-11T13:23:39.074Z,11.90
2023-01-11T13:26:17.442Z,11.90
2023-01-11T13:28:49.790Z,11.90
2023-01-11T13:31:18.508Z,11.90
2023-01-11T13:33:52.716Z,11.90
2023-01-11T13:36:25.144Z,11.90
2023-01-11T13:38:59.848Z,12.00
2023-01-11T13:41:32.242Z,12.00
2023-01-11T13:44:05.551Z,11.90
2023-01-11T13:46:47.230Z,11.90
2023-01-11T13:49:25.888Z,11.90
2023-01-11T13:51:59.376Z,11.90
2023-01-11T13:54:34.395Z,11.90
2023-01-11T13:57:07.616Z,11.90
2023-01-11T13:59:40.631Z,11.90
2023-01-11T14:02:15.519Z,11.90
2023-01-11T14:04:50.096Z,11.90
2023-01-11T14:07:28.825Z,11.80
2023-01-11T14:10:09.904Z,11.80
2023-01-11T14:13:01.194Z,11.70
2023-01-11T14:15:37.944Z,11.70
2023-01-11T14:18:14.293Z,11.70
2023-01-11T14:20:48.289Z,11.70
2023-01-11T14:23:18.163Z,11.70
2023-01-11T14:26:01.908Z,11.60
2023-01-11T14:28:54.654Z,11.70
2023-01-11T14:31:50.183Z,11.60
2023-01-11T14:34:40.071Z,11.60
2023-01-11T14:37:43.230Z,11.60
2023-01-11T14:40:38.652Z,11.60
2023-01-11T14:43:38.027Z,11.50
2023-01-11T14:46:42.111Z,11.50
2023-01-11T14:49:18.910Z,11.50
2023-01-11T14:51:55.899Z,11.50
2023-01-11T14:54:27.513Z,11.40
2023-01-11T14:56:56.512Z,11.40
2023-01-11T14:59:33.408Z,11.40
2023-01-11T15:02:30.553Z,11.30
2023-01-11T15:05:14.649Z,11.30
2023-01-11T15:07:43.362Z,11.30
2023-01-11T15:10:46.189Z,11.20
2023-01-11T15:13:19.028Z,11.10
2023-01-11T15:16:04.626Z,11.20
2023-01-11T15:18:44.263Z,11.10
2023-01-11T15:21:17.673Z,11.10
2023-01-11T15:23:52.103Z,11.10
2023-01-11T15:26:21.799Z,11.10
2023-01-11T15:28:52.300Z,11.00
2023-01-11T15:31:34.464Z,11.10
2023-01-11T15:34:06.402Z,11.10
2023-01-11T15:37:17.155Z,11.00
2023-01-11T15:39:50.939Z,11.00
2023-01-11T15:42:57.950Z,10.90
2023-01-11T15:46:01.908Z,10.90
2023-01-11T15:48:38.860Z,10.90
2023-01-11T15:51:20.981Z,10.80
2023-01-11T15:54:23.676Z,10.80
2023-01-11T15:57:29.837Z,10.80
2023-01-11T16:00:25.475Z,10.70
2023-01-11T16:03:27.686Z,10.60
2023-01-11T16:06:05.154Z,10.70
2023-01-11T16:08:41.557Z,10.70
2023-01-11T16:11:19.717Z,10.60
2023-01-11T16:14:02.913Z,10.60
2023-01-11T16:16:34.577Z,10.60
2023-01-11T16:19:09.260Z,10.50
2023-01-11T16:21:40.327Z,10.50
2023-01-11T16:24:15.410Z,10.40
2023-01-11T16:26:43.606Z,10.40
2023-01-11T16:29:15.597Z,10.40
2023-01-11T16:31:54.049Z,10.40
2023-01-11T16:34:25.337Z,10.30
2023-01-11T16:36:53.205Z,10.20
2023-01-11T16:39:24.902Z,10.20
2023-01-11T16:41:58.041Z,10.10
2023-01-11T16:44:34.693Z,10.10
2023-01-11T16:47:14.596Z,10.10
2023-01-11T16:49:48.664Z,10.00
2023-01-11T16:52:40.169Z,10.00
2023-01-11T16:55:19.664Z,9.90
2023-01-11T16:57:52.179Z,9.90
2023-01-11T17:00:28.906Z,9.90
2023-01-11T17:03:21.196Z,9.80
2023-01-11T17:06:18.188Z,9.70
2023-01-11T17:08:49.439Z,9.70
2023-01-11T17:11:30.958Z,9.70
2023-01-11T17:14:54.485Z,9.70
2023-01-11T17:17:23.595Z,9.70
2023-01-11T17:19:53.232Z,9.70
2023-01-11T17:22:25.453Z,9.70
2023-01-11T17:24:55.755Z,9.80
2023-01-11T17:27:29.116Z,9.70
2023-01-11T17:29:58.621Z,9.70
2023-01-11T17:32:35.872Z,9.50
2023-01-11T17:35:06.212Z,9.50
2023-01-11T17:37:34.930Z,9.50
2023-01-11T17:40:03.544Z,9.40
2023-01-11T17:42:59.053Z,9.40
2023-01-11T17:45:27.453Z,9.30
2023-01-11T17:47:56.259Z,9.30
2023-01-11T17:50:27.729Z,9.40
2023-01-11T17:53:06.958Z,9.30
2023-01-11T17:55:35.780Z,9.30
2023-01-11T17:58:26.208Z,9.30
2023-01-11T18:01:14.843Z,9.30
2023-01-11T18:03:45.302Z,9.20
2023-01-11T18:06:14.796Z,9.20
2023-01-11T18:08:48.361Z,9.20
2023-01-11T18:11:24.865Z,9.20
2023-01-11T18:13:56.253Z,9.20
2023-01-11T18:16:25.439Z,9.20
2023-01-11T18:18:55.325Z,9.40
2023-01-11T18:21:41.078Z,9.40
2023-01-11T18:24:34.333Z,9.30
2023-01-11T18:27:26.199Z,9.30
2023-01-11T18:29:56.911Z,9.20
2023-01-11T18:32:25.309Z,9.20
2023-01-11T18:34:55.511Z,9.10
2023-01-11T18:37:25.421Z,9.10
2023-01-11T18:39:54.021Z,9.10
2023-01-11T18:42:27.984Z,9.10
2023-01-11T18:44:57.696Z,9.10
2023-01-11T18:47:28.445Z,9.20
2023-01-11T18:49:57.114Z,9.10
2023-01-11T18:52:27.815Z,9.10
2023-01-11T18:54:56.337Z,9.20
2023-01-11T18:57:24.795Z,9.20
2023-01-11T18:59:54.557Z,9.20
2023-01-11T19:02:27.034Z,9.10
2023-01-11T19:04:56.446Z,9.10
2023-01-11T19:07:25.571Z,9.00
2023-01-11T19:09:54.849Z,9.00
2023-01-11T19:12:23.742Z,9.00
2023-01-11T19:14:51.735Z,9.10
2023-01-11T19:17:19.985Z,9.10
2023-01-11T19:19:51.810Z,9.20
2023-01-11T19:22:21.996Z,9.20
2023-01-11T19:24:52.638Z,9.20
2023-01-11T19:27:20.748Z,9.20
2023-01-11T19:29:48.996Z,9.30
2023-01-11T19:32:18.478Z,9.30
2023-01-11T19:34:46.935Z,9.30
2023-01-11T19:37:16.541Z,9.20
2023-01-11T19:39:44.717Z,9.20
2023-01-11T19:42:14.738Z,9.20
2023-01-11T19:44:42.922Z,9.20
2023-01-11T19:47:15.546Z,9.20
2023-01-11T19:49:44.306Z,9.20
2023-01-11T19:52:14.230Z,9.10
2023-01-11T19:54:44.325Z,9.10
2023-01-11T19:57:14.421Z,8.90
2023-01-11T19:59:43.134Z,8.90
2023-01-11T20:02:13.047Z,8.90
2023-01-11T20:04:41.957Z,8.90
2023-01-11T20:07:11.062Z,8.90
2023-01-11T20:09:39.282Z,9.00
2023-01-11T20:12:10.202Z,8.90
2023-01-11T20:14:42.063Z,8.80
2023-01-11T20:17:13.023Z,8.80
2023-01-11T20:19:41.335Z,8.80
2023-01-11T20:22:09.294Z,8.70
2023-01-11T20:24:37.336Z,8.70
2023-01-11T20:27:05.408Z,8.70
2023-01-11T20:29:34.790Z,8.70
2023-01-11T20:32:21.159Z,8.70
2023-01-11T20:34:50.797Z,8.60
2023-01-11T20:37:18.886Z,8.70
2023-01-11T20:39:46.921Z,8.60
2023-01-11T20:42:14.891Z,8.70
2023-01-11T20:44:44.276Z,8.70
2023-01-11T20:47:12.389Z,8.70
2023-01-11T20:49:41.047Z,8.70
2023-01-11T20:52:09.079Z,8.70
2023-01-11T20:54:40.538Z,8.60
2023-01-11T20:57:12.411Z,8.70
2023-01-11T20:59:44.890Z,8.70
2023-01-11T21:02:15.838Z,8.70
2023-01-11T21:04:43.848Z,8.70
2023-01-11T21:07:11.909Z,8.70
2023-01-11T21:09:39.923Z,8.70
2023-01-11T21:12:09.517Z,8.70
2023-01-11T21:14:37.569Z,8.70
2023-01-11T21:17:06.831Z,8.70
2023-01-11T21:19:34.734Z,8.70
2023-01-11T21:22:02.695Z,8.70
2023-01-11T21:24:30.862Z,8.70
2023-01-11T21:26:58.798Z,8.70
2023-01-11T21:29:26.828Z,8.70
2023-01-11T21:31:54.670Z,8.70
2023-01-11T21:34:24.288Z,8.80
2023-01-11T21:36:52.500Z,8.70
2023-01-11T21:39:20.426Z,8.80
2023-01-11T21:41:58.521Z,8.80
2023-01-11T21:44:32.345Z,8.80
2023-01-11T21:47:00.424Z,8.90
2023-01-11T21:49:29.875Z,8.80
2023-01-11T21:51:58.024Z,8.80
2023-01-11T21:54:25.967Z,8.70
2023-01-11T21:56:53.814Z,8.70
2023-01-11T21:59:21.896Z,8.70
2023-01-11T22:01:49.823Z,8.70
2023-01-11T22:04:19.403Z,8.80
2023-01-11T22:06:54.213Z,8.80
2023-01-11T22:09:23.396Z,8.70
2023-01-11T22:11:51.229Z,8.70
2023-01-11T22:14:19.486Z,8.80
2023-01-11T22:16:47.487Z,8.80
2023-01-11T22:19:15.525Z,8.70
2023-01-11T22:21:43.464Z,8.70
2023-01-11T22:24:13.211Z,8.70
2023-01-11T22:26:41.670Z,8.80
2023-01-11T22:29:14.965Z,8.80
2023-01-11T22:31:45.539Z,8.80
2023-01-11T22:34:14.752Z,8.80
2023-01-11T22:36:43.676Z,8.90
2023-01-11T22:39:13.861Z,8.90
2023-01-11T22:41:41.914Z,8.90
2023-01-11T22:44:10.800Z,8.90
2023-01-11T22:46:38.886Z,9.00
2023-01-11T22:49:07.364Z,9.00
2023-01-11T22:51:35.888Z,9.10
2023-01-11T22:54:04.274Z,9.10
2023-01-11T22:56:33.865Z,9.00
2023-01-11T22:59:01.971Z,9.10
2023-01-11T23:01:31.248Z,9.10
2023-01-11T23:04:00.642Z,9.00
2023-01-11T23:06:30.280Z,9.00
2023-01-11T23:08:58.716Z,9.00
2023-01-11T23:11:46.197Z,9.10
2023-01-11T23:14:19.591Z,9.00
2023-01-11T23:16:49.230Z,9.10
2023-01-11T23:19:18.880Z,9.10
2023-01-11T23:21:47.907Z,9.30
2023-01-11T23:24:17.105Z,9.20
2023-01-11T23:26:45.473Z,9.20
2023-01-11T23:29:15.312Z,9.40
2023-01-11T23:31:43.851Z,9.40
2023-01-11T23:34:13.065Z,9.40
2023-01-11T23:36:43.401Z,9.40
2023-01-11T23:39:14.762Z,9.50
2023-01-11T23:42:00.314Z,9.50
2023-01-11T23:44:29.661Z,9.50
2023-01-11T23:47:14.768Z,9.60
2023-01-11T23:49:43.619Z,9.60
2023-01-11T23:52:11.789Z,9.50
2023-01-11T23:54:39.905Z,9.60
2023-01-11T23:57:09.213Z,9.60
2023-01-11T23:59:39.070Z,9.50
